Terminal Aerodrome Forecast
Issued by NWS

Current Version | Previous Version | Text Only | Print | Product List | Glossary Off
Versions: 1 2 3 4 5 6 7 8 9 10 11 12 13 14 15 16 17 18 19 20 21 22 23 24 25 26 27 28 29 30

000
FTUS41 KRLX 190100 AAA
TAFCKB
TAF AMD
KCKB 190158Z 1902/1924 VRB03KT P6SM BKN050
     FM190400 00000KT 4SM BR SCT002 BKN040
     FM190500 00000KT 2SM BR BKN002
     FM190700 00000KT 3/4SM BR BKN002
     FM191300 00000KT 4SM BR BKN010
     FM191500 00000KT 6SM HZ BKN025
     FM191700 20004KT P6SM BKN030=

USA.gov is the U.S. government's official web portal to all federal, state and local government web resources and services.